Frobisher, Canada
Current Conditions -  °F | °C
As of 6:00 PM on Tuesday 21 Oct 2014 (Local Time) from CYEN Reporting Station
Few Clouds Few Clouds  
Wind Chill: 61°   Ceiling: Unl
Heat Index: 61°   Visibility: 15mi
Dew Point: 43°   Wind: 12mph
Humidity: 52%   Direction: 120°ESE
Pressure: 29.59"   Gusts: NA
Location:  49.2°N, 102.42°W
Report Text: CYEN 220000Z 12010KT 15SM FEW120 FEW260 16/06 A2959 RMK AC1CI0SLP032
Loading
Personal Weather Stations






























Interactive Weather Map
Tropical Storm Tracking
New forecast layout! Learn more

10-Day Weather Forecast

Advertisements
Track Severe Weather on mobile